sensor_id;sensor_type;location;lat;lon;timestamp;pressure;altitude;pressure_sealevel;temperature;humidity
61337;BME280;47212;41.326;2.104;2023-05-03T00:04:20;101713.19;;;18.20;66.31
61337;BME280;47212;41.326;2.104;2023-05-03T00:09:24;101708.28;;;18.11;66.52
61337;BME280;47212;41.326;2.104;2023-05-03T00:14:27;101699.25;;;18.06;67.05
61337;BME280;47212;41.326;2.104;2023-05-03T00:24:08;101689.72;;;17.93;67.11
61337;BME280;47212;41.326;2.104;2023-05-03T00:29:11;101694.75;;;17.86;67.44
61337;BME280;47212;41.326;2.104;2023-05-03T00:34:13;101681.59;;;17.78;67.52
61337;BME280;47212;41.326;2.104;2023-05-03T00:44:06;101670.66;;;17.68;67.86
61337;BME280;47212;41.326;2.104;2023-05-03T00:49:11;101666.53;;;17.65;68.33
61337;BME280;47212;41.326;2.104;2023-05-03T00:54:13;101661.59;;;17.62;68.17
61337;BME280;47212;41.326;2.104;2023-05-03T01:15:07;101635.84;;;17.43;69.58
61337;BME280;47212;41.326;2.104;2023-05-03T01:20:12;101638.66;;;17.38;69.52
61337;BME280;47212;41.326;2.104;2023-05-03T01:25:15;101634.25;;;17.32;69.70
61337;BME280;47212;41.326;2.104;2023-05-03T01:30:19;101624.94;;;17.28;70.28
61337;BME280;47212;41.326;2.104;2023-05-03T01:40:46;101628.56;;;17.18;70.70
61337;BME280;47212;41.326;2.104;2023-05-03T01:45:49;101633.81;;;17.14;70.87
61337;BME280;47212;41.326;2.104;2023-05-03T01:50:51;101625.03;;;17.12;70.98
61337;BME280;47212;41.326;2.104;2023-05-03T01:55:53;101622.31;;;17.07;72.61
61337;BME280;47212;41.326;2.104;2023-05-03T02:00:56;101622.34;;;17.02;71.50
61337;BME280;47212;41.326;2.104;2023-05-03T02:05:58;101617.41;;;16.99;71.66
61337;BME280;47212;41.326;2.104;2023-05-03T02:11:05;101610.56;;;16.97;72.04
61337;BME280;47212;41.326;2.104;2023-05-03T02:16:16;101609.72;;;16.96;72.48
61337;BME280;47212;41.326;2.104;2023-05-03T02:21:18;101612.75;;;16.95;72.39
61337;BME280;47212;41.326;2.104;2023-05-03T02:26:20;101598.47;;;16.93;72.34
61337;BME280;47212;41.326;2.104;2023-05-03T02:31:23;101603.16;;;16.92;72.99
61337;BME280;47212;41.326;2.104;2023-05-03T02:36:25;101599.31;;;16.88;72.80
61337;BME280;47212;41.326;2.104;2023-05-03T02:41:28;101599.34;;;16.83;73.09
61337;BME280;47212;41.326;2.104;2023-05-03T02:46:32;101598.28;;;16.79;73.68
61337;BME280;47212;41.326;2.104;2023-05-03T02:51:36;101594.44;;;16.75;73.36
61337;BME280;47212;41.326;2.104;2023-05-03T02:56:38;101589.53;;;16.72;73.95
61337;BME280;47212;41.326;2.104;2023-05-03T03:01:41;101586.50;;;16.68;73.72
61337;BME280;47212;41.326;2.104;2023-05-03T03:06:44;101585.69;;;16.63;73.89
61337;BME280;47212;41.326;2.104;2023-05-03T03:11:52;101581.31;;;16.56;74.13
61337;BME280;47212;41.326;2.104;2023-05-03T03:16:57;101574.75;;;16.52;74.26
61337;BME280;47212;41.326;2.104;2023-05-03T03:24:09;101566.78;;;16.46;74.41
61337;BME280;47212;41.326;2.104;2023-05-03T03:29:40;101571.44;;;16.45;74.50
61337;BME280;47212;41.326;2.104;2023-05-03T03:34:45;101578.03;;;16.44;74.12
61337;BME280;47212;41.326;2.104;2023-05-03T03:39:52;101574.22;;;16.40;74.12
61337;BME280;47212;41.326;2.104;2023-05-03T03:44:55;101569.00;;;16.39;74.10
61337;BME280;47212;41.326;2.104;2023-05-03T03:49:59;101571.47;;;16.35;74.10
61337;BME280;47212;41.326;2.104;2023-05-03T03:55:04;101562.16;;;16.31;73.82
61337;BME280;47212;41.326;2.104;2023-05-03T04:05:39;101568.22;;;16.23;73.55
61337;BME280;47212;41.326;2.104;2023-05-03T04:10:43;101557.53;;;16.16;73.38
61337;BME280;47212;41.326;2.104;2023-05-03T04:15:56;101560.31;;;16.11;73.61
61337;BME280;47212;41.326;2.104;2023-05-03T04:21:00;101563.91;;;16.07;73.51
61337;BME280;47212;41.326;2.104;2023-05-03T04:26:02;101565.00;;;16.01;73.35
61337;BME280;47212;41.326;2.104;2023-05-03T04:31:07;101560.06;;;15.98;73.75
61337;BME280;47212;41.326;2.104;2023-05-03T04:36:10;101556.50;;;15.97;73.13
61337;BME280;47212;41.326;2.104;2023-05-03T04:41:19;101567.78;;;15.96;73.15
61337;BME280;47212;41.326;2.104;2023-05-03T04:46:22;101572.16;;;15.97;73.00
61337;BME280;47212;41.326;2.104;2023-05-03T04:51:24;101578.75;;;15.96;72.95
61337;BME280;47212;41.326;2.104;2023-05-03T04:56:31;101580.41;;;15.91;72.88
61337;BME280;47212;41.326;2.104;2023-05-03T05:01:44;101596.06;;;15.91;72.40
61337;BME280;47212;41.326;2.104;2023-05-03T05:06:50;101597.97;;;15.90;72.17
61337;BME280;47212;41.326;2.104;2023-05-03T05:11:55;101603.19;;;15.92;72.26
61337;BME280;47212;41.326;2.104;2023-05-03T05:17:00;101620.50;;;15.92;71.93
61337;BME280;47212;41.326;2.104;2023-05-03T05:22:03;101629.56;;;15.93;71.85
61337;BME280;47212;41.326;2.104;2023-05-03T05:27:15;101630.94;;;15.96;71.71
61337;BME280;47212;41.326;2.104;2023-05-03T05:32:18;101633.13;;;15.99;72.03
61337;BME280;47212;41.326;2.104;2023-05-03T05:37:21;101635.03;;;16.03;71.85
61337;BME280;47212;41.326;2.104;2023-05-03T05:42:24;101647.38;;;16.06;71.83
61337;BME280;47212;41.326;2.104;2023-05-03T05:47:28;101651.78;;;16.12;71.81
61337;BME280;47212;41.326;2.104;2023-05-03T05:52:32;101650.66;;;16.18;71.54
61337;BME280;47212;41.326;2.104;2023-05-03T05:57:36;101656.13;;;16.23;71.68
61337;BME280;47212;41.326;2.104;2023-05-03T06:02:40;101672.06;;;16.31;71.04
61337;BME280;47212;41.326;2.104;2023-05-03T06:07:47;101672.88;;;16.37;70.57
61337;BME280;47212;41.326;2.104;2023-05-03T06:12:54;101663.50;;;16.43;70.81
61337;BME280;47212;41.326;2.104;2023-05-03T06:18:01;101660.50;;;16.49;70.86
61337;BME280;47212;41.326;2.104;2023-05-03T06:23:03;101660.47;;;16.60;70.67
61337;BME280;47212;41.326;2.104;2023-05-03T06:28:06;101662.66;;;16.68;70.23
61337;BME280;47212;41.326;2.104;2023-05-03T06:33:14;101662.06;;;16.81;69.97
61337;BME280;47212;41.326;2.104;2023-05-03T06:38:20;101666.63;;;17.01;69.72
61337;BME280;47212;41.326;2.104;2023-05-03T06:43:22;101665.91;;;17.29;68.95
61337;BME280;47212;41.326;2.104;2023-05-03T06:48:30;101675.94;;;17.59;67.81
61337;BME280;47212;41.326;2.104;2023-05-03T06:53:33;101676.25;;;17.92;66.72
61337;BME280;47212;41.326;2.104;2023-05-03T06:58:35;101665.72;;;18.28;65.82
61337;BME280;47212;41.326;2.104;2023-05-03T07:03:38;101666.19;;;18.64;64.59
61337;BME280;47212;41.326;2.104;2023-05-03T07:08:43;101661.03;;;19.00;63.41
61337;BME280;47212;41.326;2.104;2023-05-03T07:13:48;101669.13;;;19.34;62.57
61337;BME280;47212;41.326;2.104;2023-05-03T07:18:52;101665.19;;;19.59;61.58
61337;BME280;47212;41.326;2.104;2023-05-03T07:23:54;101662.81;;;19.85;60.44
61337;BME280;47212;41.326;2.104;2023-05-03T07:28:59;101659.34;;;20.12;58.69
61337;BME280;47212;41.326;2.104;2023-05-03T07:34:01;101663.81;;;20.40;58.72
61337;BME280;47212;41.326;2.104;2023-05-03T07:39:04;101659.72;;;20.65;57.85
61337;BME280;47212;41.326;2.104;2023-05-03T07:44:06;101656.44;;;20.90;57.70
61337;BME280;47212;41.326;2.104;2023-05-03T07:49:08;101664.28;;;21.11;56.80
61337;BME280;47212;41.326;2.104;2023-05-03T07:54:17;101662.22;;;21.30;56.41
61337;BME280;47212;41.326;2.104;2023-05-03T07:59:20;101651.84;;;21.36;55.89
61337;BME280;47212;41.326;2.104;2023-05-03T08:04:23;101656.69;;;21.52;55.60
61337;BME280;47212;41.326;2.104;2023-05-03T08:09:26;101653.06;;;21.66;54.99
61337;BME280;47212;41.326;2.104;2023-05-03T08:14:31;101653.00;;;21.79;54.74
61337;BME280;47212;41.326;2.104;2023-05-03T08:19:34;101647.91;;;21.95;53.90
61337;BME280;47212;41.326;2.104;2023-05-03T08:24:39;101640.19;;;22.14;53.38
61337;BME280;47212;41.326;2.104;2023-05-03T08:29:46;101650.56;;;22.31;52.86
61337;BME280;47212;41.326;2.104;2023-05-03T08:34:51;101640.16;;;22.45;51.07
61337;BME280;47212;41.326;2.104;2023-05-03T08:44:56;101656.91;;;22.32;57.26
61337;BME280;47212;41.326;2.104;2023-05-03T08:49:58;101655.66;;;22.38;57.46
61337;BME280;47212;41.326;2.104;2023-05-03T08:55:02;101651.50;;;22.58;56.94
61337;BME280;47212;41.326;2.104;2023-05-03T09:00:05;101666.38;;;22.62;56.00
61337;BME280;47212;41.326;2.104;2023-05-03T09:10:23;101661.84;;;22.35;56.46
61337;BME280;47212;41.326;2.104;2023-05-03T09:15:26;101657.00;;;22.49;56.80
61337;BME280;47212;41.326;2.104;2023-05-03T09:20:38;101656.34;;;22.52;56.50
61337;BME280;47212;41.326;2.104;2023-05-03T09:25:42;101660.72;;;22.44;57.12
61337;BME280;47212;41.326;2.104;2023-05-03T09:30:49;101657.91;;;22.36;58.16
61337;BME280;47212;41.326;2.104;2023-05-03T09:35:59;101657.56;;;22.29;59.22
61337;BME280;47212;41.326;2.104;2023-05-03T09:41:02;101665.66;;;22.16;59.57
61337;BME280;47212;41.326;2.104;2023-05-03T09:46:08;101659.94;;;22.13;59.85
61337;BME280;47212;41.326;2.104;2023-05-03T09:51:11;101660.63;;;21.96;60.10
61337;BME280;47212;41.326;2.104;2023-05-03T09:56:13;101656.59;;;21.80;60.44
61337;BME280;47212;41.326;2.104;2023-05-03T10:01:23;101668.06;;;21.87;60.63
61337;BME280;47212;41.326;2.104;2023-05-03T10:06:30;101671.47;;;21.84;59.94
61337;BME280;47212;41.326;2.104;2023-05-03T10:11:35;101667.69;;;21.80;59.82
61337;BME280;47212;41.326;2.104;2023-05-03T10:16:40;101674.50;;;21.74;59.66
61337;BME280;47212;41.326;2.104;2023-05-03T10:22:04;101666.19;;;21.74;59.79
61337;BME280;47212;41.326;2.104;2023-05-03T10:27:16;101654.91;;;21.70;59.03
61337;BME280;47212;41.326;2.104;2023-05-03T10:37:33;101661.13;;;21.76;60.97
61337;BME280;47212;41.326;2.104;2023-05-03T10:42:43;101652.88;;;21.84;61.85
61337;BME280;47212;41.326;2.104;2023-05-03T10:58:45;101638.59;;;21.69;61.17
61337;BME280;47212;41.326;2.104;2023-05-03T11:09:33;101643.88;;;21.79;58.56
61337;BME280;47212;41.326;2.104;2023-05-03T11:14:35;101647.72;;;21.91;59.14
61337;BME280;47212;41.326;2.104;2023-05-03T11:19:38;101640.34;;;21.87;59.27
61337;BME280;47212;41.326;2.104;2023-05-03T11:24:40;101637.06;;;21.85;59.75
61337;BME280;47212;41.326;2.104;2023-05-03T11:29:47;101635.94;;;21.86;60.94
61337;BME280;47212;41.326;2.104;2023-05-03T11:34:52;101636.06;;;21.81;61.59
61337;BME280;47212;41.326;2.104;2023-05-03T11:40:03;101637.25;;;21.66;63.29
61337;BME280;47212;41.326;2.104;2023-05-03T11:45:06;101626.69;;;21.68;62.45
61337;BME280;47212;41.326;2.104;2023-05-03T11:50:09;101625.03;;;21.67;60.87
61337;BME280;47212;41.326;2.104;2023-05-03T11:55:12;101628.88;;;21.57;61.52
61337;BME280;47212;41.326;2.104;2023-05-03T12:00:24;101617.84;;;21.44;61.77
61337;BME280;47212;41.326;2.104;2023-05-03T12:05:31;101614.91;;;21.40;62.11
61337;BME280;47212;41.326;2.104;2023-05-03T12:10:38;101613.44;;;21.43;62.93
61337;BME280;47212;41.326;2.104;2023-05-03T12:16:01;101618.56;;;21.49;65.29
61337;BME280;47212;41.326;2.104;2023-05-03T12:21:07;101626.28;;;21.61;65.20
61337;BME280;47212;41.326;2.104;2023-05-03T12:26:32;101621.75;;;21.65;65.54
61337;BME280;47212;41.326;2.104;2023-05-03T12:31:34;101614.88;;;21.62;65.89
61337;BME280;47212;41.326;2.104;2023-05-03T12:36:46;101625.75;;;21.73;64.74
61337;BME280;47212;41.326;2.104;2023-05-03T12:41:50;101621.91;;;21.82;64.50
61337;BME280;47212;41.326;2.104;2023-05-03T12:47:14;101611.00;;;21.86;64.75
61337;BME280;47212;41.326;2.104;2023-05-03T12:52:27;101614.78;;;21.68;64.81
61337;BME280;47212;41.326;2.104;2023-05-03T12:57:34;101623.97;;;21.54;65.36
61337;BME280;47212;41.326;2.104;2023-05-03T13:02:38;101612.19;;;21.49;65.96
61337;BME280;47212;41.326;2.104;2023-05-03T13:08:02;101596.38;;;21.27;67.01
61337;BME280;47212;41.326;2.104;2023-05-03T13:13:11;101605.91;;;21.21;67.74
61337;BME280;47212;41.326;2.104;2023-05-03T13:18:14;101593.13;;;21.25;67.49
61337;BME280;47212;41.326;2.104;2023-05-03T13:23:26;101600.16;;;21.31;67.34
61337;BME280;47212;41.326;2.104;2023-05-03T13:28:31;101594.63;;;21.31;67.82
61337;BME280;47212;41.326;2.104;2023-05-03T13:33:33;101605.69;;;21.31;68.39
61337;BME280;47212;41.326;2.104;2023-05-03T13:38:38;101608.41;;;21.22;68.57
61337;BME280;47212;41.326;2.104;2023-05-03T13:43:42;101590.38;;;21.11;68.18
61337;BME280;47212;41.326;2.104;2023-05-03T13:48:45;101577.47;;;21.07;68.64
61337;BME280;47212;41.326;2.104;2023-05-03T13:53:50;101581.13;;;21.16;68.87
61337;BME280;47212;41.326;2.104;2023-05-03T13:58:53;101581.00;;;21.21;69.63
61337;BME280;47212;41.326;2.104;2023-05-03T14:03:56;101584.94;;;21.06;70.19
61337;BME280;47212;41.326;2.104;2023-05-03T14:08:58;101568.84;;;21.08;70.29
61337;BME280;47212;41.326;2.104;2023-05-03T14:14:03;101573.31;;;21.18;69.12
61337;BME280;47212;41.326;2.104;2023-05-03T14:19:05;101559.97;;;21.20;69.73
61337;BME280;47212;41.326;2.104;2023-05-03T14:24:08;101557.72;;;21.22;69.72
61337;BME280;47212;41.326;2.104;2023-05-03T14:29:10;101562.69;;;21.11;69.81
61337;BME280;47212;41.326;2.104;2023-05-03T14:34:12;101551.34;;;20.99;69.55
61337;BME280;47212;41.326;2.104;2023-05-03T14:39:14;101551.78;;;20.92;71.19
61337;BME280;47212;41.326;2.104;2023-05-03T14:44:17;101567.44;;;20.97;71.44
61337;BME280;47212;41.326;2.104;2023-05-03T14:49:22;101564.06;;;21.00;71.67
61337;BME280;47212;41.326;2.104;2023-05-03T14:54:25;101555.56;;;20.96;71.88
61337;BME280;47212;41.326;2.104;2023-05-03T14:59:51;101559.47;;;20.95;71.36
61337;BME280;47212;41.326;2.104;2023-05-03T15:04:53;101557.91;;;21.03;72.01
61337;BME280;47212;41.326;2.104;2023-05-03T15:09:55;101555.75;;;21.00;71.85
61337;BME280;47212;41.326;2.104;2023-05-03T15:14:58;101556.56;;;21.01;72.45
61337;BME280;47212;41.326;2.104;2023-05-03T15:20:00;101547.25;;;20.96;72.28
61337;BME280;47212;41.326;2.104;2023-05-03T15:25:03;101548.53;;;21.13;72.32
61337;BME280;47212;41.326;2.104;2023-05-03T15:30:05;101550.28;;;21.09;72.73
61337;BME280;47212;41.326;2.104;2023-05-03T15:35:08;101546.94;;;20.98;72.33
61337;BME280;47212;41.326;2.104;2023-05-03T15:40:14;101562.53;;;20.80;73.26
61337;BME280;47212;41.326;2.104;2023-05-03T15:45:21;101556.63;;;20.73;73.74
61337;BME280;47212;41.326;2.104;2023-05-03T15:50:29;101561.53;;;20.76;72.76
61337;BME280;47212;41.326;2.104;2023-05-03T15:55:32;101575.28;;;20.81;73.58
61337;BME280;47212;41.326;2.104;2023-05-03T16:00:34;101573.63;;;20.80;73.89
61337;BME280;47212;41.326;2.104;2023-05-03T16:05:38;101579.78;;;20.77;74.22
61337;BME280;47212;41.326;2.104;2023-05-03T16:10:40;101578.75;;;20.73;73.78
61337;BME280;47212;41.326;2.104;2023-05-03T16:15:43;101572.59;;;20.76;73.27
61337;BME280;47212;41.326;2.104;2023-05-03T16:20:46;101585.44;;;20.58;74.06
61337;BME280;47212;41.326;2.104;2023-05-03T16:25:49;101585.97;;;20.47;74.50
61337;BME280;47212;41.326;2.104;2023-05-03T16:30:51;101570.06;;;20.52;75.09
61337;BME280;47212;41.326;2.104;2023-05-03T16:35:54;101593.53;;;20.55;75.15
61337;BME280;47212;41.326;2.104;2023-05-03T16:40:59;101575.69;;;20.61;74.94
61337;BME280;47212;41.326;2.104;2023-05-03T16:46:02;101582.47;;;20.55;74.90
61337;BME280;47212;41.326;2.104;2023-05-03T16:51:04;101587.81;;;20.51;75.15
61337;BME280;47212;41.326;2.104;2023-05-03T16:56:07;101582.56;;;20.50;75.30
61337;BME280;47212;41.326;2.104;2023-05-03T17:01:09;101582.78;;;20.53;74.44
61337;BME280;47212;41.326;2.104;2023-05-03T17:06:11;101586.16;;;20.50;73.96
61337;BME280;47212;41.326;2.104;2023-05-03T17:11:14;101591.91;;;20.54;73.74
61337;BME280;47212;41.326;2.104;2023-05-03T17:16:21;101583.72;;;20.49;73.93
61337;BME280;47212;41.326;2.104;2023-05-03T17:21:37;101586.06;;;20.42;74.11
61337;BME280;47212;41.326;2.104;2023-05-03T17:26:39;101580.63;;;20.36;73.71
61337;BME280;47212;41.326;2.104;2023-05-03T17:31:41;101585.72;;;20.29;73.92
61337;BME280;47212;41.326;2.104;2023-05-03T17:36:43;101580.63;;;20.23;74.49
61337;BME280;47212;41.326;2.104;2023-05-03T17:41:45;101583.28;;;20.14;74.14
61337;BME280;47212;41.326;2.104;2023-05-03T17:46:47;101590.63;;;20.05;74.64
61337;BME280;47212;41.326;2.104;2023-05-03T17:51:50;101584.69;;;19.98;75.02
61337;BME280;47212;41.326;2.104;2023-05-03T17:56:52;101594.47;;;19.90;75.98
61337;BME280;47212;41.326;2.104;2023-05-03T18:01:54;101596.50;;;19.85;76.36
61337;BME280;47212;41.326;2.104;2023-05-03T18:06:56;101604.88;;;19.80;77.02
61337;BME280;47212;41.326;2.104;2023-05-03T18:11:59;101611.63;;;19.73;77.86
61337;BME280;47212;41.326;2.104;2023-05-03T18:17:09;101615.09;;;19.65;78.23
61337;BME280;47212;41.326;2.104;2023-05-03T18:22:12;101618.00;;;19.55;79.33
61337;BME280;47212;41.326;2.104;2023-05-03T18:27:14;101620.31;;;19.48;79.77
61337;BME280;47212;41.326;2.104;2023-05-03T18:32:17;101615.38;;;19.45;80.50
61337;BME280;47212;41.326;2.104;2023-05-03T18:37:29;101623.47;;;19.41;81.82
61337;BME280;47212;41.326;2.104;2023-05-03T18:42:31;101623.75;;;19.40;80.91
61337;BME280;47212;41.326;2.104;2023-05-03T19:08:18;101646.44;;;19.37;82.03
61337;BME280;47212;41.326;2.104;2023-05-03T19:13:20;101648.16;;;19.33;82.19
61337;BME280;47212;41.326;2.104;2023-05-03T19:18:22;101656.75;;;19.31;82.55
61337;BME280;47212;41.326;2.104;2023-05-03T19:23:25;101671.38;;;19.32;82.70
61337;BME280;47212;41.326;2.104;2023-05-03T19:28:27;101670.03;;;19.29;82.79
61337;BME280;47212;41.326;2.104;2023-05-03T19:33:31;101669.50;;;19.27;82.89
61337;BME280;47212;41.326;2.104;2023-05-03T19:38:34;101672.56;;;19.26;83.00
61337;BME280;47212;41.326;2.104;2023-05-03T19:43:40;101676.44;;;19.25;82.98
61337;BME280;47212;41.326;2.104;2023-05-03T19:48:43;101669.28;;;19.24;83.21
61337;BME280;47212;41.326;2.104;2023-05-03T19:53:45;101676.72;;;19.23;83.18
61337;BME280;47212;41.326;2.104;2023-05-03T19:58:49;101685.31;;;19.22;83.23
61337;BME280;47212;41.326;2.104;2023-05-03T20:03:51;101688.91;;;19.22;83.34
61337;BME280;47212;41.326;2.104;2023-05-03T20:08:56;101699.13;;;19.22;83.47
61337;BME280;47212;41.326;2.104;2023-05-03T20:13:58;101706.28;;;19.23;83.68
61337;BME280;47212;41.326;2.104;2023-05-03T20:19:06;101701.06;;;19.21;83.67
61337;BME280;47212;41.326;2.104;2023-05-03T20:24:08;101699.13;;;19.22;83.81
61337;BME280;47212;41.326;2.104;2023-05-03T20:29:11;101710.44;;;19.20;83.80
61337;BME280;47212;41.326;2.104;2023-05-03T20:34:13;101718.97;;;19.24;84.07
61337;BME280;47212;41.326;2.104;2023-05-03T20:39:15;101704.63;;;19.22;83.81
61337;BME280;47212;41.326;2.104;2023-05-03T20:44:17;101717.91;;;19.20;84.22
61337;BME280;47212;41.326;2.104;2023-05-03T20:49:20;101718.50;;;19.17;83.99
61337;BME280;47212;41.326;2.104;2023-05-03T20:54:22;101726.50;;;19.18;84.31
61337;BME280;47212;41.326;2.104;2023-05-03T20:59:25;101731.78;;;19.15;84.38
61337;BME280;47212;41.326;2.104;2023-05-03T21:04:27;101733.41;;;19.16;84.16
61337;BME280;47212;41.326;2.104;2023-05-03T21:09:29;101734.25;;;19.16;84.53
61337;BME280;47212;41.326;2.104;2023-05-03T21:14:32;101725.97;;;19.16;84.57
61337;BME280;47212;41.326;2.104;2023-05-03T21:19:39;101731.19;;;19.18;84.55
61337;BME280;47212;41.326;2.104;2023-05-03T21:24:41;101732.31;;;19.17;84.73
61337;BME280;47212;41.326;2.104;2023-05-03T21:29:43;101739.75;;;19.16;84.95
61337;BME280;47212;41.326;2.104;2023-05-03T21:34:45;101744.47;;;19.16;85.19
61337;BME280;47212;41.326;2.104;2023-05-03T21:39:47;101737.00;;;19.16;85.19
61337;BME280;47212;41.326;2.104;2023-05-03T21:45:02;101745.28;;;19.16;85.23
61337;BME280;47212;41.326;2.104;2023-05-03T21:50:05;101745.28;;;19.16;84.93
61337;BME280;47212;41.326;2.104;2023-05-03T21:55:08;101748.34;;;19.15;85.55
61337;BME280;47212;41.326;2.104;2023-05-03T22:00:11;101739.53;;;19.13;85.42
61337;BME280;47212;41.326;2.104;2023-05-03T22:05:19;101736.25;;;19.11;85.72
61337;BME280;47212;41.326;2.104;2023-05-03T22:10:22;101749.53;;;19.08;85.78
61337;BME280;47212;41.326;2.104;2023-05-03T22:15:24;101742.34;;;19.07;85.67
61337;BME280;47212;41.326;2.104;2023-05-03T22:20:28;101750.34;;;19.09;86.33
61337;BME280;47212;41.326;2.104;2023-05-03T22:25:31;101758.31;;;19.11;85.86
61337;BME280;47212;41.326;2.104;2023-05-03T22:30:33;101747.59;;;19.09;85.77
61337;BME280;47212;41.326;2.104;2023-05-03T22:35:35;101756.69;;;19.09;85.57
61337;BME280;47212;41.326;2.104;2023-05-03T22:40:37;101747.88;;;19.07;85.71
61337;BME280;47212;41.326;2.104;2023-05-03T22:45:39;101755.91;;;19.04;86.03
61337;BME280;47212;41.326;2.104;2023-05-03T22:50:41;101745.16;;;19.02;85.83
61337;BME280;47212;41.326;2.104;2023-05-03T22:55:53;101747.38;;;19.00;86.08
61337;BME280;47212;41.326;2.104;2023-05-03T23:00:58;101755.13;;;18.98;86.08
61337;BME280;47212;41.326;2.104;2023-05-03T23:06:00;101753.78;;;18.96;86.14
61337;BME280;47212;41.326;2.104;2023-05-03T23:11:09;101761.25;;;18.95;86.35
61337;BME280;47212;41.326;2.104;2023-05-03T23:16:11;101757.94;;;18.93;86.25
61337;BME280;47212;41.326;2.104;2023-05-03T23:21:16;101761.31;;;18.90;86.55
61337;BME280;47212;41.326;2.104;2023-05-03T23:26:21;101759.13;;;18.87;86.70
61337;BME280;47212;41.326;2.104;2023-05-03T23:31:24;101761.34;;;18.85;86.67
61337;BME280;47212;41.326;2.104;2023-05-03T23:36:26;101774.63;;;18.83;86.68
61337;BME280;47212;41.326;2.104;2023-05-03T23:41:29;101758.66;;;18.80;86.77
61337;BME280;47212;41.326;2.104;2023-05-03T23:46:31;101764.47;;;18.78;86.80
61337;BME280;47212;41.326;2.104;2023-05-03T23:51:34;101765.88;;;18.76;87.02
61337;BME280;47212;41.326;2.104;2023-05-03T23:56:36;101759.31;;;18.72;87.19
